sensor_id;sensor_type;location;lat;lon;timestamp;pressure;altitude;pressure_sealevel;temperature;humidity
70971;BME280;58632;51.718;19.446;2023-04-20T00:01:52;99869.19;;;7.47;100.00
70971;BME280;58632;51.718;19.446;2023-04-20T00:04:17;99862.11;;;7.50;100.00
70971;BME280;58632;51.718;19.446;2023-04-20T00:06:43;99864.02;;;7.47;100.00
70971;BME280;58632;51.718;19.446;2023-04-20T00:09:11;99860.06;;;7.43;100.00
70971;BME280;58632;51.718;19.446;2023-04-20T00:11:37;99862.77;;;7.44;100.00
70971;BME280;58632;51.718;19.446;2023-04-20T00:14:03;99861.23;;;7.48;100.00
70971;BME280;58632;51.718;19.446;2023-04-20T00:16:29;99860.19;;;7.52;100.00
70971;BME280;58632;51.718;19.446;2023-04-20T00:18:55;99866.88;;;7.58;100.00
70971;BME280;58632;51.718;19.446;2023-04-20T00:21:20;99866.71;;;7.65;100.00
70971;BME280;58632;51.718;19.446;2023-04-20T00:23:51;99872.08;;;7.66;100.00
70971;BME280;58632;51.718;19.446;2023-04-20T00:26:17;99866.44;;;7.67;100.00
70971;BME280;58632;51.718;19.446;2023-04-20T00:28:43;99867.92;;;7.70;100.00
70971;BME280;58632;51.718;19.446;2023-04-20T00:31:09;99866.99;;;7.75;100.00
70971;BME280;58632;51.718;19.446;2023-04-20T00:33:34;99867.49;;;7.81;100.00
70971;BME280;58632;51.718;19.446;2023-04-20T00:36:00;99865.93;;;7.83;100.00
70971;BME280;58632;51.718;19.446;2023-04-20T00:38:25;99865.17;;;7.85;100.00
70971;BME280;58632;51.718;19.446;2023-04-20T00:40:53;99861.00;;;7.87;100.00
70971;BME280;58632;51.718;19.446;2023-04-20T00:43:19;99860.03;;;7.90;100.00
70971;BME280;58632;51.718;19.446;2023-04-20T00:45:45;99862.87;;;7.91;100.00
70971;BME280;58632;51.718;19.446;2023-04-20T00:48:11;99868.98;;;7.92;100.00
70971;BME280;58632;51.718;19.446;2023-04-20T00:50:38;99869.56;;;7.95;100.00
70971;BME280;58632;51.718;19.446;2023-04-20T00:53:06;99869.24;;;8.01;100.00
70971;BME280;58632;51.718;19.446;2023-04-20T00:55:36;99867.90;;;8.05;100.00
70971;BME280;58632;51.718;19.446;2023-04-20T00:58:02;99867.98;;;8.04;100.00
70971;BME280;58632;51.718;19.446;2023-04-20T01:00:28;99869.44;;;7.99;100.00
70971;BME280;58632;51.718;19.446;2023-04-20T01:02:56;99867.97;;;7.99;100.00
70971;BME280;58632;51.718;19.446;2023-04-20T01:05:22;99865.36;;;8.01;100.00
70971;BME280;58632;51.718;19.446;2023-04-20T01:07:48;99865.36;;;8.04;100.00
70971;BME280;58632;51.718;19.446;2023-04-20T01:10:16;99871.70;;;8.09;100.00
70971;BME280;58632;51.718;19.446;2023-04-20T01:12:41;99870.84;;;8.11;100.00
70971;BME280;58632;51.718;19.446;2023-04-20T01:15:12;99874.59;;;8.15;100.00
70971;BME280;58632;51.718;19.446;2023-04-20T01:17:38;99874.30;;;8.13;100.00
70971;BME280;58632;51.718;19.446;2023-04-20T01:20:07;99875.06;;;8.07;100.00
70971;BME280;58632;51.718;19.446;2023-04-20T01:22:49;99865.29;;;8.11;100.00
70971;BME280;58632;51.718;19.446;2023-04-20T01:25:16;99867.94;;;8.18;100.00
70971;BME280;58632;51.718;19.446;2023-04-20T01:27:42;99865.84;;;8.19;100.00
70971;BME280;58632;51.718;19.446;2023-04-20T01:30:09;99866.80;;;8.20;100.00
70971;BME280;58632;51.718;19.446;2023-04-20T01:32:35;99871.80;;;8.25;100.00
70971;BME280;58632;51.718;19.446;2023-04-20T01:35:03;99870.61;;;8.28;100.00
70971;BME280;58632;51.718;19.446;2023-04-20T01:37:29;99872.69;;;8.27;100.00
70971;BME280;58632;51.718;19.446;2023-04-20T01:39:55;99870.94;;;8.22;100.00
70971;BME280;58632;51.718;19.446;2023-04-20T01:42:21;99871.00;;;8.22;100.00
70971;BME280;58632;51.718;19.446;2023-04-20T01:44:47;99869.47;;;8.25;100.00
70971;BME280;58632;51.718;19.446;2023-04-20T01:47:15;99867.63;;;8.27;100.00
70971;BME280;58632;51.718;19.446;2023-04-20T01:49:40;99863.38;;;8.32;100.00
70971;BME280;58632;51.718;19.446;2023-04-20T01:52:06;99858.66;;;8.36;100.00
70971;BME280;58632;51.718;19.446;2023-04-20T01:54:32;99863.63;;;8.39;100.00
70971;BME280;58632;51.718;19.446;2023-04-20T01:56:57;99864.84;;;8.41;100.00
70971;BME280;58632;51.718;19.446;2023-04-20T01:59:23;99860.77;;;8.43;100.00
70971;BME280;58632;51.718;19.446;2023-04-20T02:01:48;99863.95;;;8.48;100.00
70971;BME280;58632;51.718;19.446;2023-04-20T02:04:14;99865.11;;;8.52;100.00
70971;BME280;58632;51.718;19.446;2023-04-20T02:06:39;99863.09;;;8.52;100.00
70971;BME280;58632;51.718;19.446;2023-04-20T02:09:05;99866.51;;;8.46;100.00
70971;BME280;58632;51.718;19.446;2023-04-20T02:11:33;99870.12;;;8.40;100.00
70971;BME280;58632;51.718;19.446;2023-04-20T02:13:58;99867.73;;;8.32;100.00
70971;BME280;58632;51.718;19.446;2023-04-20T02:16:24;99871.84;;;8.29;100.00
70971;BME280;58632;51.718;19.446;2023-04-20T02:18:50;99872.64;;;8.32;100.00
70971;BME280;58632;51.718;19.446;2023-04-20T02:21:15;99866.48;;;8.32;100.00
70971;BME280;58632;51.718;19.446;2023-04-20T02:23:41;99867.17;;;8.33;100.00
70971;BME280;58632;51.718;19.446;2023-04-20T02:26:09;99865.17;;;8.32;100.00
70971;BME280;58632;51.718;19.446;2023-04-20T02:28:34;99866.77;;;8.29;100.00
70971;BME280;58632;51.718;19.446;2023-04-20T02:31:03;99865.38;;;8.25;100.00
70971;BME280;58632;51.718;19.446;2023-04-20T02:33:30;99869.63;;;8.23;100.00
70971;BME280;58632;51.718;19.446;2023-04-20T02:35:55;99866.83;;;8.19;100.00
70971;BME280;58632;51.718;19.446;2023-04-20T02:38:21;99866.07;;;8.15;100.00
70971;BME280;58632;51.718;19.446;2023-04-20T02:40:46;99865.45;;;8.11;100.00
70971;BME280;58632;51.718;19.446;2023-04-20T02:43:12;99867.14;;;8.02;100.00
70971;BME280;58632;51.718;19.446;2023-04-20T02:45:38;99868.29;;;7.96;100.00
70971;BME280;58632;51.718;19.446;2023-04-20T02:48:04;99874.27;;;7.92;100.00
70971;BME280;58632;51.718;19.446;2023-04-20T02:50:30;99870.23;;;7.87;100.00
70971;BME280;58632;51.718;19.446;2023-04-20T02:52:55;99875.75;;;7.86;100.00
70971;BME280;58632;51.718;19.446;2023-04-20T02:55:21;99873.55;;;7.87;100.00
70971;BME280;58632;51.718;19.446;2023-04-20T02:57:46;99871.00;;;7.89;100.00
70971;BME280;58632;51.718;19.446;2023-04-20T03:00:14;99873.16;;;7.90;100.00
70971;BME280;58632;51.718;19.446;2023-04-20T03:02:40;99873.26;;;7.85;100.00
70971;BME280;58632;51.718;19.446;2023-04-20T03:05:06;99873.89;;;7.82;100.00
70971;BME280;58632;51.718;19.446;2023-04-20T03:07:31;99868.55;;;7.80;100.00
70971;BME280;58632;51.718;19.446;2023-04-20T03:09:57;99871.11;;;7.83;100.00
70971;BME280;58632;51.718;19.446;2023-04-20T03:12:25;99868.96;;;7.82;100.00
70971;BME280;58632;51.718;19.446;2023-04-20T03:14:50;99870.52;;;7.79;100.00
70971;BME280;58632;51.718;19.446;2023-04-20T03:17:16;99870.84;;;7.74;100.00
70971;BME280;58632;51.718;19.446;2023-04-20T03:19:44;99871.96;;;7.70;100.00
70971;BME280;58632;51.718;19.446;2023-04-20T03:22:10;99875.41;;;7.66;100.00
70971;BME280;58632;51.718;19.446;2023-04-20T03:24:36;99872.70;;;7.61;100.00
70971;BME280;58632;51.718;19.446;2023-04-20T03:27:01;99875.14;;;7.59;100.00
70971;BME280;58632;51.718;19.446;2023-04-20T03:29:27;99874.20;;;7.57;100.00
70971;BME280;58632;51.718;19.446;2023-04-20T03:31:52;99878.77;;;7.54;100.00
70971;BME280;58632;51.718;19.446;2023-04-20T03:34:18;99880.45;;;7.49;100.00
70971;BME280;58632;51.718;19.446;2023-04-20T03:36:43;99882.12;;;7.43;100.00
70971;BME280;58632;51.718;19.446;2023-04-20T03:39:09;99884.07;;;7.37;100.00
70971;BME280;58632;51.718;19.446;2023-04-20T03:41:34;99886.36;;;7.31;100.00
70971;BME280;58632;51.718;19.446;2023-04-20T03:44:00;99886.18;;;7.25;100.00
70971;BME280;58632;51.718;19.446;2023-04-20T03:46:28;99886.20;;;7.20;100.00
70971;BME280;58632;51.718;19.446;2023-04-20T03:48:53;99886.03;;;7.14;100.00
70971;BME280;58632;51.718;19.446;2023-04-20T03:51:21;99885.72;;;7.06;100.00
70971;BME280;58632;51.718;19.446;2023-04-20T03:53:47;99888.85;;;7.01;100.00
70971;BME280;58632;51.718;19.446;2023-04-20T03:56:15;99891.15;;;6.97;100.00
70971;BME280;58632;51.718;19.446;2023-04-20T03:58:40;99888.66;;;6.94;100.00
70971;BME280;58632;51.718;19.446;2023-04-20T04:01:06;99890.20;;;6.94;100.00
70971;BME280;58632;51.718;19.446;2023-04-20T04:03:37;99887.16;;;6.93;100.00
70971;BME280;58632;51.718;19.446;2023-04-20T04:06:03;99888.86;;;6.92;100.00
70971;BME280;58632;51.718;19.446;2023-04-20T04:08:28;99888.41;;;6.90;100.00
70971;BME280;58632;51.718;19.446;2023-04-20T04:10:54;99886.41;;;6.85;100.00
70971;BME280;58632;51.718;19.446;2023-04-20T04:13:20;99882.26;;;6.86;100.00
70971;BME280;58632;51.718;19.446;2023-04-20T04:15:45;99885.96;;;6.91;100.00
70971;BME280;58632;51.718;19.446;2023-04-20T04:18:11;99887.46;;;6.98;100.00
70971;BME280;58632;51.718;19.446;2023-04-20T04:20:36;99887.64;;;7.08;100.00
70971;BME280;58632;51.718;19.446;2023-04-20T04:23:04;99886.37;;;7.20;100.00
70971;BME280;58632;51.718;19.446;2023-04-20T04:25:36;99889.99;;;7.32;100.00
70971;BME280;58632;51.718;19.446;2023-04-20T04:28:02;99889.98;;;7.45;100.00
70971;BME280;58632;51.718;19.446;2023-04-20T04:30:27;99889.83;;;7.58;100.00
70971;BME280;58632;51.718;19.446;2023-04-20T04:32:53;99892.04;;;7.72;100.00
70971;BME280;58632;51.718;19.446;2023-04-20T04:35:19;99889.83;;;7.89;100.00
70971;BME280;58632;51.718;19.446;2023-04-20T04:37:45;99895.62;;;8.04;100.00
70971;BME280;58632;51.718;19.446;2023-04-20T04:40:11;99891.45;;;8.20;100.00
70971;BME280;58632;51.718;19.446;2023-04-20T04:42:37;99888.08;;;8.31;100.00
70971;BME280;58632;51.718;19.446;2023-04-20T04:45:05;99894.58;;;8.45;100.00
70971;BME280;58632;51.718;19.446;2023-04-20T04:47:40;99894.55;;;8.61;100.00
70971;BME280;58632;51.718;19.446;2023-04-20T04:50:06;99895.95;;;8.77;100.00
70971;BME280;58632;51.718;19.446;2023-04-20T04:52:33;99894.95;;;8.87;100.00
70971;BME280;58632;51.718;19.446;2023-04-20T04:54:59;99895.84;;;9.04;100.00
70971;BME280;58632;51.718;19.446;2023-04-20T04:57:25;99894.66;;;9.17;100.00
70971;BME280;58632;51.718;19.446;2023-04-20T04:59:51;99893.39;;;9.38;100.00
70971;BME280;58632;51.718;19.446;2023-04-20T05:02:18;99896.25;;;9.59;100.00
70971;BME280;58632;51.718;19.446;2023-04-20T05:04:44;99894.66;;;9.74;100.00
70971;BME280;58632;51.718;19.446;2023-04-20T05:07:10;99900.61;;;9.91;100.00
70971;BME280;58632;51.718;19.446;2023-04-20T05:09:38;99904.02;;;10.19;100.00
70971;BME280;58632;51.718;19.446;2023-04-20T05:12:04;99908.36;;;10.65;100.00
70971;BME280;58632;51.718;19.446;2023-04-20T05:14:30;99905.66;;;11.23;100.00
70971;BME280;58632;51.718;19.446;2023-04-20T05:16:58;99905.48;;;11.93;100.00
70971;BME280;58632;51.718;19.446;2023-04-20T05:19:23;99906.20;;;12.61;100.00
70971;BME280;58632;51.718;19.446;2023-04-20T05:21:49;99909.34;;;13.37;100.00
70971;BME280;58632;51.718;19.446;2023-04-20T05:24:14;99906.14;;;14.13;100.00
70971;BME280;58632;51.718;19.446;2023-04-20T05:26:42;99912.48;;;15.04;100.00
70971;BME280;58632;51.718;19.446;2023-04-20T05:29:07;99915.34;;;15.69;100.00
70971;BME280;58632;51.718;19.446;2023-04-20T05:31:36;99915.73;;;16.27;100.00
70971;BME280;58632;51.718;19.446;2023-04-20T05:34:01;99914.98;;;16.15;100.00
70971;BME280;58632;51.718;19.446;2023-04-20T05:36:28;99921.23;;;15.99;100.00
70971;BME280;58632;51.718;19.446;2023-04-20T05:38:54;99920.54;;;15.91;100.00
70971;BME280;58632;51.718;19.446;2023-04-20T05:41:20;99919.27;;;16.01;100.00
70971;BME280;58632;51.718;19.446;2023-04-20T05:43:51;99919.41;;;16.06;100.00
70971;BME280;58632;51.718;19.446;2023-04-20T05:46:16;99922.09;;;15.97;100.00
70971;BME280;58632;51.718;19.446;2023-04-20T05:48:42;99922.04;;;15.89;100.00
70971;BME280;58632;51.718;19.446;2023-04-20T05:51:08;99921.65;;;15.74;100.00
70971;BME280;58632;51.718;19.446;2023-04-20T05:53:33;99923.95;;;15.63;100.00
70971;BME280;58632;51.718;19.446;2023-04-20T05:55:58;99927.48;;;15.66;100.00
70971;BME280;58632;51.718;19.446;2023-04-20T05:58:24;99932.31;;;15.78;100.00
70971;BME280;58632;51.718;19.446;2023-04-20T06:00:51;99929.27;;;16.12;100.00
70971;BME280;58632;51.718;19.446;2023-04-20T06:03:17;99926.71;;;16.39;100.00
70971;BME280;58632;51.718;19.446;2023-04-20T06:05:43;99928.82;;;16.65;100.00
70971;BME280;58632;51.718;19.446;2023-04-20T06:08:08;99932.19;;;16.86;100.00
70971;BME280;58632;51.718;19.446;2023-04-20T06:10:34;99937.95;;;17.07;100.00
70971;BME280;58632;51.718;19.446;2023-04-20T06:13:00;99938.23;;;17.22;100.00
70971;BME280;58632;51.718;19.446;2023-04-20T06:15:25;99936.52;;;17.22;100.00
70971;BME280;58632;51.718;19.446;2023-04-20T06:17:51;99941.29;;;17.20;100.00
70971;BME280;58632;51.718;19.446;2023-04-20T06:20:19;99940.13;;;17.28;100.00
70971;BME280;58632;51.718;19.446;2023-04-20T06:22:45;99941.14;;;17.39;100.00
70971;BME280;58632;51.718;19.446;2023-04-20T06:25:11;99939.31;;;17.31;100.00
70971;BME280;58632;51.718;19.446;2023-04-20T06:27:37;99939.58;;;17.21;100.00
70971;BME280;58632;51.718;19.446;2023-04-20T06:30:03;99934.29;;;17.18;100.00
70971;BME280;58632;51.718;19.446;2023-04-20T06:32:29;99933.80;;;17.37;100.00
70971;BME280;58632;51.718;19.446;2023-04-20T06:34:55;99933.71;;;17.68;100.00
70971;BME280;58632;51.718;19.446;2023-04-20T06:37:20;99936.61;;;17.94;100.00
70971;BME280;58632;51.718;19.446;2023-04-20T06:39:46;99934.59;;;18.19;100.00
70971;BME280;58632;51.718;19.446;2023-04-20T06:42:11;99934.56;;;18.47;100.00
70971;BME280;58632;51.718;19.446;2023-04-20T06:44:38;99937.08;;;18.55;100.00
70971;BME280;58632;51.718;19.446;2023-04-20T06:47:04;99940.52;;;18.37;97.62
70971;BME280;58632;51.718;19.446;2023-04-20T06:49:30;99944.05;;;18.03;96.68
70971;BME280;58632;51.718;19.446;2023-04-20T06:51:55;99946.98;;;17.70;93.97
70971;BME280;58632;51.718;19.446;2023-04-20T06:54:21;99947.94;;;17.24;96.58
70971;BME280;58632;51.718;19.446;2023-04-20T06:56:47;99950.61;;;16.91;98.35
70971;BME280;58632;51.718;19.446;2023-04-20T06:59:12;99947.20;;;16.70;99.29
70971;BME280;58632;51.718;19.446;2023-04-20T07:01:40;99941.15;;;16.42;99.61
70971;BME280;58632;51.718;19.446;2023-04-20T07:04:06;99946.08;;;16.24;99.33
70971;BME280;58632;51.718;19.446;2023-04-20T07:06:31;99952.08;;;16.03;100.00
70971;BME280;58632;51.718;19.446;2023-04-20T07:08:57;99952.36;;;15.90;99.67
70971;BME280;58632;51.718;19.446;2023-04-20T07:11:23;99952.92;;;15.73;100.00
70971;BME280;58632;51.718;19.446;2023-04-20T07:13:48;99952.98;;;15.64;100.00
70971;BME280;58632;51.718;19.446;2023-04-20T07:16:14;99951.93;;;15.55;100.00
70971;BME280;58632;51.718;19.446;2023-04-20T07:18:40;99948.16;;;15.52;100.00
70971;BME280;58632;51.718;19.446;2023-04-20T07:21:08;99953.66;;;15.60;100.00
70971;BME280;58632;51.718;19.446;2023-04-20T07:23:34;99947.90;;;15.73;100.00
70971;BME280;58632;51.718;19.446;2023-04-20T07:25:59;99953.64;;;15.90;100.00
70971;BME280;58632;51.718;19.446;2023-04-20T07:28:25;99955.15;;;15.99;99.94
70971;BME280;58632;51.718;19.446;2023-04-20T07:30:53;99960.23;;;16.07;100.00
70971;BME280;58632;51.718;19.446;2023-04-20T07:33:18;99961.71;;;16.13;98.18
70971;BME280;58632;51.718;19.446;2023-04-20T07:35:45;99958.16;;;16.06;97.71
70971;BME280;58632;51.718;19.446;2023-04-20T07:38:11;99962.52;;;16.04;96.97
70971;BME280;58632;51.718;19.446;2023-04-20T07:40:36;99965.46;;;16.01;93.86
70971;BME280;58632;51.718;19.446;2023-04-20T07:43:04;99964.80;;;16.00;95.74
70971;BME280;58632;51.718;19.446;2023-04-20T07:45:30;99963.94;;;16.06;97.72
70971;BME280;58632;51.718;19.446;2023-04-20T07:47:55;99969.52;;;16.09;94.83
70971;BME280;58632;51.718;19.446;2023-04-20T07:50:21;99971.85;;;16.11;94.27
70971;BME280;58632;51.718;19.446;2023-04-20T07:52:47;99972.00;;;16.13;94.10
70971;BME280;58632;51.718;19.446;2023-04-20T07:55:12;99970.92;;;16.17;91.59
70971;BME280;58632;51.718;19.446;2023-04-20T07:57:39;99974.70;;;16.30;91.94
70971;BME280;58632;51.718;19.446;2023-04-20T08:00:05;99971.44;;;16.41;93.38
70971;BME280;58632;51.718;19.446;2023-04-20T08:02:34;99975.86;;;16.57;95.98
70971;BME280;58632;51.718;19.446;2023-04-20T08:05:05;99974.03;;;16.73;91.20
70971;BME280;58632;51.718;19.446;2023-04-20T08:07:30;99975.94;;;16.85;89.01
70971;BME280;58632;51.718;19.446;2023-04-20T08:09:56;99978.27;;;16.94;87.90
70971;BME280;58632;51.718;19.446;2023-04-20T08:12:22;99976.10;;;17.06;86.57
70971;BME280;58632;51.718;19.446;2023-04-20T08:14:47;99976.11;;;17.22;84.89
70971;BME280;58632;51.718;19.446;2023-04-20T08:17:13;99979.00;;;17.34;86.53
70971;BME280;58632;51.718;19.446;2023-04-20T08:19:38;99978.60;;;17.46;87.02
70971;BME280;58632;51.718;19.446;2023-04-20T08:22:06;99978.07;;;17.66;87.84
70971;BME280;58632;51.718;19.446;2023-04-20T08:24:32;99979.46;;;18.05;86.19
70971;BME280;58632;51.718;19.446;2023-04-20T08:26:57;99977.10;;;18.42;80.66
70971;BME280;58632;51.718;19.446;2023-04-20T08:29:24;99971.80;;;18.79;81.18
70971;BME280;58632;51.718;19.446;2023-04-20T08:31:50;99974.33;;;19.36;80.62
70971;BME280;58632;51.718;19.446;2023-04-20T08:34:21;99973.45;;;19.93;70.02
70971;BME280;58632;51.718;19.446;2023-04-20T08:37:00;99974.73;;;20.33;69.02
70971;BME280;58632;51.718;19.446;2023-04-20T08:39:26;99975.30;;;20.19;64.66
70971;BME280;58632;51.718;19.446;2023-04-20T08:41:51;99973.73;;;19.98;69.31
70971;BME280;58632;51.718;19.446;2023-04-20T08:44:21;99976.88;;;19.86;64.30
70971;BME280;58632;51.718;19.446;2023-04-20T08:46:50;99979.04;;;19.57;62.67
70971;BME280;58632;51.718;19.446;2023-04-20T08:49:16;99982.39;;;19.28;63.08
70971;BME280;58632;51.718;19.446;2023-04-20T08:51:42;99985.55;;;19.03;61.83
70971;BME280;58632;51.718;19.446;2023-04-20T08:54:09;99979.54;;;18.78;65.78
70971;BME280;58632;51.718;19.446;2023-04-20T08:56:40;99980.05;;;18.76;69.78
70971;BME280;58632;51.718;19.446;2023-04-20T08:59:06;99978.11;;;18.75;73.84
70971;BME280;58632;51.718;19.446;2023-04-20T09:01:36;99978.41;;;18.77;70.55
70971;BME280;58632;51.718;19.446;2023-04-20T09:04:16;99977.48;;;18.70;70.35
70971;BME280;58632;51.718;19.446;2023-04-20T09:06:46;99975.67;;;18.75;73.38
70971;BME280;58632;51.718;19.446;2023-04-20T09:09:12;99976.94;;;18.94;72.84
70971;BME280;58632;51.718;19.446;2023-04-20T09:11:37;99974.08;;;19.05;73.16
70971;BME280;58632;51.718;19.446;2023-04-20T09:14:05;99975.42;;;19.21;73.90
70971;BME280;58632;51.718;19.446;2023-04-20T09:16:32;99975.73;;;19.33;67.36
70971;BME280;58632;51.718;19.446;2023-04-20T09:18:58;99980.97;;;19.28;68.50
70971;BME280;58632;51.718;19.446;2023-04-20T09:21:25;99980.73;;;19.22;71.89
70971;BME280;58632;51.718;19.446;2023-04-20T09:24:07;99980.52;;;19.36;70.93
70971;BME280;58632;51.718;19.446;2023-04-20T09:26:34;99976.84;;;19.52;67.38
70971;BME280;58632;51.718;19.446;2023-04-20T09:29:01;99980.22;;;19.63;67.44
70971;BME280;58632;51.718;19.446;2023-04-20T09:31:29;99985.84;;;19.62;66.69
70971;BME280;58632;51.718;19.446;2023-04-20T09:34:02;99988.42;;;19.68;68.07
70971;BME280;58632;51.718;19.446;2023-04-20T09:36:43;99991.86;;;19.66;63.10
70971;BME280;58632;51.718;19.446;2023-04-20T09:39:10;99987.33;;;19.60;64.53
70971;BME280;58632;51.718;19.446;2023-04-20T09:41:38;99992.77;;;19.63;64.82
70971;BME280;58632;51.718;19.446;2023-04-20T09:44:04;99993.98;;;19.59;64.32
70971;BME280;58632;51.718;19.446;2023-04-20T09:46:30;99993.88;;;19.50;64.65
70971;BME280;58632;51.718;19.446;2023-04-20T09:48:57;99994.48;;;19.24;65.82
70971;BME280;58632;51.718;19.446;2023-04-20T09:51:28;99991.50;;;19.14;68.87
70971;BME280;58632;51.718;19.446;2023-04-20T09:53:57;99989.29;;;19.15;66.08
70971;BME280;58632;51.718;19.446;2023-04-20T09:56:23;99988.55;;;19.03;70.63
70971;BME280;58632;51.718;19.446;2023-04-20T09:58:50;99982.68;;;19.02;70.25
70971;BME280;58632;51.718;19.446;2023-04-20T10:01:16;99976.79;;;19.06;72.35
70971;BME280;58632;51.718;19.446;2023-04-20T10:03:45;99979.11;;;19.14;72.59
70971;BME280;58632;51.718;19.446;2023-04-20T10:06:17;99978.33;;;19.09;71.71
70971;BME280;58632;51.718;19.446;2023-04-20T10:08:43;99977.31;;;19.15;70.43
70971;BME280;58632;51.718;19.446;2023-04-20T10:11:08;99978.48;;;19.25;71.80
70971;BME280;58632;51.718;19.446;2023-04-20T10:13:36;99984.92;;;19.20;68.56
70971;BME280;58632;51.718;19.446;2023-04-20T10:16:02;99979.17;;;19.24;71.21
70971;BME280;58632;51.718;19.446;2023-04-20T10:18:27;99976.70;;;19.23;75.64
70971;BME280;58632;51.718;19.446;2023-04-20T10:21:07;99973.71;;;19.19;70.68
70971;BME280;58632;51.718;19.446;2023-04-20T10:23:34;99968.26;;;19.08;72.93
70971;BME280;58632;51.718;19.446;2023-04-20T10:25:59;99969.73;;;19.06;73.14
70971;BME280;58632;51.718;19.446;2023-04-20T10:28:39;99964.02;;;19.00;70.97
70971;BME280;58632;51.718;19.446;2023-04-20T10:31:07;99961.12;;;19.08;75.67
70971;BME280;58632;51.718;19.446;2023-04-20T10:33:32;99957.36;;;19.29;70.76
70971;BME280;58632;51.718;19.446;2023-04-20T10:35:58;99955.77;;;19.43;69.21
70971;BME280;58632;51.718;19.446;2023-04-20T10:40:54;99946.93;;;19.70;68.05
70971;BME280;58632;51.718;19.446;2023-04-20T10:43:20;99951.86;;;19.66;66.45
70971;BME280;58632;51.718;19.446;2023-04-20T10:45:47;99950.35;;;19.60;64.91
70971;BME280;58632;51.718;19.446;2023-04-20T10:48:13;99943.23;;;19.42;66.51
70971;BME280;58632;51.718;19.446;2023-04-20T10:50:38;99945.64;;;19.25;66.98
70971;BME280;58632;51.718;19.446;2023-04-20T10:53:04;99945.19;;;19.09;67.70
70971;BME280;58632;51.718;19.446;2023-04-20T10:55:30;99942.86;;;18.96;69.00
70971;BME280;58632;51.718;19.446;2023-04-20T10:57:55;99947.30;;;18.80;66.80
70971;BME280;58632;51.718;19.446;2023-04-20T11:00:24;99948.66;;;18.66;66.25
70971;BME280;58632;51.718;19.446;2023-04-20T11:02:54;99941.00;;;18.63;63.70
70971;BME280;58632;51.718;19.446;2023-04-20T11:05:25;99945.08;;;18.74;65.39
70971;BME280;58632;51.718;19.446;2023-04-20T11:07:58;99939.25;;;18.92;66.36
70971;BME280;58632;51.718;19.446;2023-04-20T11:10:41;99942.20;;;19.04;62.25
70971;BME280;58632;51.718;19.446;2023-04-20T11:13:18;99943.25;;;19.00;60.60
70971;BME280;58632;51.718;19.446;2023-04-20T11:15:44;99942.88;;;19.20;61.03
70971;BME280;58632;51.718;19.446;2023-04-20T11:18:10;99943.84;;;19.27;62.99
70971;BME280;58632;51.718;19.446;2023-04-20T11:20:37;99944.60;;;19.30;61.34
70971;BME280;58632;51.718;19.446;2023-04-20T11:23:13;99944.35;;;19.30;60.67
70971;BME280;58632;51.718;19.446;2023-04-20T11:25:50;99950.64;;;19.24;61.69
70971;BME280;58632;51.718;19.446;2023-04-20T11:28:17;99948.55;;;19.17;61.49
70971;BME280;58632;51.718;19.446;2023-04-20T11:30:43;99951.06;;;19.03;61.14
70971;BME280;58632;51.718;19.446;2023-04-20T11:33:09;99952.95;;;18.81;62.91
70971;BME280;58632;51.718;19.446;2023-04-20T11:35:39;99955.10;;;18.68;63.52
70971;BME280;58632;51.718;19.446;2023-04-20T11:38:06;99955.97;;;18.52;63.01
70971;BME280;58632;51.718;19.446;2023-04-20T11:40:37;99954.95;;;18.39;65.15
70971;BME280;58632;51.718;19.446;2023-04-20T11:43:03;99959.11;;;18.26;65.67
70971;BME280;58632;51.718;19.446;2023-04-20T11:45:31;99958.73;;;18.18;65.81
70971;BME280;58632;51.718;19.446;2023-04-20T11:47:58;99956.48;;;18.07;65.27
70971;BME280;58632;51.718;19.446;2023-04-20T11:50:24;99959.59;;;18.00;64.79
70971;BME280;58632;51.718;19.446;2023-04-20T11:52:50;99958.40;;;17.91;65.21
70971;BME280;58632;51.718;19.446;2023-04-20T11:55:15;99958.14;;;17.79;66.04
70971;BME280;58632;51.718;19.446;2023-04-20T11:57:41;99957.63;;;17.77;65.35
70971;BME280;58632;51.718;19.446;2023-04-20T12:00:07;99959.29;;;17.77;65.07
70971;BME280;58632;51.718;19.446;2023-04-20T12:02:33;99961.27;;;17.77;65.82
70971;BME280;58632;51.718;19.446;2023-04-20T12:04:58;99956.33;;;17.82;66.29
70971;BME280;58632;51.718;19.446;2023-04-20T12:07:27;99957.31;;;17.97;65.84
70971;BME280;58632;51.718;19.446;2023-04-20T12:09:53;99953.83;;;18.14;64.44
70971;BME280;58632;51.718;19.446;2023-04-20T12:12:18;99955.74;;;18.38;65.52
70971;BME280;58632;51.718;19.446;2023-04-20T12:14:44;99953.09;;;18.66;63.57
70971;BME280;58632;51.718;19.446;2023-04-20T12:17:09;99952.75;;;18.83;62.94
70971;BME280;58632;51.718;19.446;2023-04-20T12:19:35;99952.44;;;19.05;61.66
70971;BME280;58632;51.718;19.446;2023-04-20T12:22:01;99944.73;;;19.28;61.63
70971;BME280;58632;51.718;19.446;2023-04-20T12:24:26;99946.05;;;19.51;57.73
70971;BME280;58632;51.718;19.446;2023-04-20T12:26:52;99949.71;;;19.61;55.16
70971;BME280;58632;51.718;19.446;2023-04-20T12:29:18;99944.15;;;19.71;54.60
70971;BME280;58632;51.718;19.446;2023-04-20T12:31:44;99941.20;;;19.85;53.54
70971;BME280;58632;51.718;19.446;2023-04-20T12:34:10;99945.10;;;20.00;55.39
70971;BME280;58632;51.718;19.446;2023-04-20T12:36:35;99937.98;;;20.12;56.04
70971;BME280;58632;51.718;19.446;2023-04-20T12:39:01;99936.68;;;20.26;54.82
70971;BME280;58632;51.718;19.446;2023-04-20T12:41:27;99931.71;;;20.21;52.23
70971;BME280;58632;51.718;19.446;2023-04-20T12:43:55;99935.30;;;20.23;52.13
70971;BME280;58632;51.718;19.446;2023-04-20T12:46:21;99932.80;;;20.28;51.60
70971;BME280;58632;51.718;19.446;2023-04-20T12:48:46;99931.85;;;20.38;50.49